LGKV/KVA METAR and TAF weather

Enter ICAO airport designator
Station Type Date Time Source
LGKV METAR 2022/01/24 18:20 UTC NOAA

LGKV 241820Z 03004KT 9999 FEW030 M01/M12 Q1029


Station Type Date Time Source
LGKV Decoded METAR 2022/01/24 18:20 UTC NOAA

Chrysoupoli Airport , Greece (LGKV) 40-59N 024-36E 5M
Jan 24, 2022 - 01:20 PM EST / 2022.01.24 1820 UTC
Wind: from the NNE (030 degrees) at 5 MPH (4 KT):0
Visibility: greater than 7 mile(s):0
Sky conditions: mostly clear
Temperature: 30 F (-1 C)
Windchill: 24 F (-4 C):1
Dew Point: 10 F (-12 C)
Relative Humidity: 42%
Pressure (altimeter): 30.39 in. Hg (1029 hPa)
ob: LGKV 241820Z 03004KT 9999 FEW030 M01/M12 Q1029
cycle: 18

Station Type Date Time Source
LGKV TAF 2022/01/24 18:12 UTC NOAA

TAF LGKV 241700Z 2418/2518 06015KT 9999 FEW025 BKN060
BECMG 2419/2421 VRB03KT FEW030
TEMPO 2509/2515 FEW025 SCT070

Example: see airport list